Flight Track Log - Related Links

Times and Time Zones

All times are in EDT time to prevent confusion due to time zone crossing. See the NKS416 flight status page for this flight to view local times or setup timezone preferences in your user account.

Time Position Orientation Groundspeed Altitude Reporting Facility
EDT Latitude Longitude Course Direction KTS MPH feet Rate Location/Type
Wed 10:11:10 PM 26.0750 -80.1367 84° East 170 196 800  Level Miami Center
Wed 10:11:48 PM 26.0778 -80.1067 84° East 163 188 2,100 1,394 Climbing Miami Center
Wed 10:12:49 PM 26.0875 -80.0400 81° East 250 288 3,100 1,472 Climbing Miami Center
Wed 10:13:34 PM 26.0992 -79.9778 78° East 279 321 4,700 3,100 Climbing Miami Center
Wed 10:13:49 PM 26.1081 -79.9547 67° East 293 337 6,200 3,621 Climbing Miami Center
Wed 10:14:32 PM 26.1344 -79.8953 64° Northeast 287 330 8,200 3,246 Climbing Miami Center
Wed 10:14:50 PM 26.1411 -79.8722 72° East 280 322 9,500 2,136 Climbing Miami Center
Wed 10:15:31 PM 26.1653 -79.8128 66° East 307 353 10,300 1,238 Climbing Miami Center
Wed 10:15:53 PM 26.1764 -79.7853 66° East 341 392 10,800 1,082 Climbing Miami Center
Wed 10:16:32 PM 26.2172 -79.7283 51° Northeast 475 547 11,400 1,920 Climbing Miami Center
Wed 10:17:33 PM 26.2819 -79.6256 55° Northeast 399 459 14,000 1,983 Climbing Miami Center
Wed 10:18:33 PM 26.3400 -79.5367 54° Northeast 377 434 15,400 1,983 Climbing Miami Center
Wed 10:19:34 PM 26.4272 -79.4458 43° Northeast 383 441 18,000 2,168 Climbing Miami Center
Wed 10:20:32 PM 26.5178 -79.3992 25° Northeast 382 440 19,700 1,263 Climbing Miami Center
Wed 10:26:13 PM 27.1636 -79.0741 24° Northeast 466 536 26,400 1,168 Climbing FlightAware ADS-B
Wed 10:26:47 PM 27.2316 -79.0398 24° Northeast 470 541 27,000 1,029 Climbing FlightAware ADS-B
Wed 10:27:23 PM 27.3017 -79.0044 24° Northeast 472 543 27,600 1,120 Climbing FlightAware ADS-B
Wed 10:28:02 PM 27.3798 -78.9679 20° North 470 541 28,400 1,130 Climbing FlightAware ADS-B
Wed 10:28:32 PM 27.4414 -78.9478 13° North 467 537 28,900 1,300 Climbing FlightAware ADS-B
Wed 10:29:02 PM 27.5069 -78.9344 North 459 528 29,700 1,574 Climbing FlightAware ADS-B
Wed 10:29:33 PM 27.5719 -78.9254 North 452 520 30,500 1,433 Climbing FlightAware ADS-B
Wed 10:30:09 PM 27.6464 -78.9147 North 449 517 31,300 785 Climbing FlightAware ADS-B
Wed 10:32:44 PM 27.9562 -78.8713 North 445 512 33,000 551 Climbing FlightAware ADS-B
Wed 10:33:14 PM 28.0260 -78.8614 North 448 516 33,000  Level FlightAware ADS-B
Wed 10:33:45 PM 28.0895 -78.8524 North 446 513 33,000  Level FlightAware ADS-B
Wed 10:34:33 PM 28.1883 -78.8384 North 446 513 33,000  Level FlightAware ADS-B
Wed 10:35:22 PM 28.2888 -78.8243 North 444 511 33,000  Level FlightAware ADS-B
Wed 10:36:24 PM 28.4159 -78.8063 North 442 509 33,000  Level FlightAware ADS-B
Wed 10:37:34 PM 28.5422 -78.7919 North 442 509 33,000 -47 Level Miami Center
Wed 10:38:32 PM 28.6636 -78.7728 North 437 503 32,900 -50 Descending Miami Center
Wed 10:39:33 PM 28.7847 -78.7558 North 437 503 32,900 49 Level Miami Center
Wed 10:40:34 PM 28.9081 -78.7389 North 437 503 33,000  Climbing Miami Center
Wed 10:41:34 PM 29.0294 -78.7219 North 437 503 32,900 -50 Descending Miami Center
Wed 10:42:34 PM 29.1506 -78.7028 North 442 509 32,900  Level Miami Center
Wed 10:43:33 PM 29.2697 -78.6833 North 442 509 32,900  Level Miami Center
Wed 10:44:34 PM 29.3931 -78.6686 North 442 509 32,900 50 Level Miami Center
Wed 10:45:33 PM 29.5183 -78.6517 North 466 536 33,000 35 Climbing Miami Center
Wed 10:47:27 PM 29.7544 -78.6203 North 433 498 33,000 -35 Level Jacksonville Center
Wed 10:48:26 PM 29.8792 -78.6003 North 456 525 32,900  Descending Jacksonville Center
Wed 10:49:26 PM 29.9994 -78.5806 North 436 502 33,000 50 Climbing Jacksonville Center
Wed 10:50:26 PM 30.1219 -78.5608 North 437 503 33,000  Level Jacksonville Center
Wed 10:51:27 PM 30.2300 -78.5486 North 455 524 33,000 -50 Level Jacksonville Center
Wed 10:52:26 PM 30.3525 -78.5311 North 444 511 32,900 -50 Descending Jacksonville Center
Wed 10:53:27 PM 30.4772 -78.5133 North 446 513 32,900  Level Jacksonville Center
Wed 10:54:27 PM 30.6039 -78.4906 North 441 507 32,900 50 Level Jacksonville Center
Wed 10:55:26 PM 30.7283 -78.4703 North 450 518 33,000  Climbing Jacksonville Center
Wed 10:56:26 PM 30.8550 -78.4500 North 450 518 32,900 -50 Descending Jacksonville Center
Wed 10:57:26 PM 30.9753 -78.4322 North 443 510 32,900  Level Jacksonville Center
Wed 10:58:26 PM 31.1125 -78.4136 North 452 520 32,900  Level Jacksonville Center
Wed 10:59:26 PM 31.2408 -78.3856 11° North 457 526 32,900 50 Level Jacksonville Center
Wed 11:00:26 PM 31.3614 -78.3700 North 457 526 33,000 50 Climbing Jacksonville Center
Wed 11:01:27 PM 31.4900 -78.3467 North 457 526 33,000  Level Jacksonville Center
Wed 11:02:26 PM 31.6147 -78.3283 North 457 526 33,000  Level Jacksonville Center
Wed 11:03:26 PM 31.7411 -78.3050 North 462 532 33,000 -50 Level Jacksonville Center
Wed 11:04:26 PM 31.8636 -78.2844 North 456 525 32,900  Descending Jacksonville Center
Wed 11:05:26 PM 31.9922 -78.2633 North 456 525 33,000  Climbing Jacksonville Center
Wed 11:06:26 PM 32.1208 -78.2419 North 461 531 32,900  Descending Jacksonville Center
Wed 11:07:26 PM 32.2308 -78.2267 North 461 531 33,000 50 Climbing Jacksonville Center
Wed 11:08:27 PM 32.3592 -78.1978 11° North 461 531 33,000  Level Jacksonville Center
Wed 11:09:26 PM 32.4858 -78.1792 North 461 531 33,000 -50 Level Jacksonville Center
Wed 11:10:27 PM 32.6125 -78.1625 North 461 531 32,900  Descending Jacksonville Center
Wed 11:11:26 PM 32.7369 -78.1414 North 461 531 33,000 50 Climbing Jacksonville Center
Wed 11:12:26 PM 32.8633 -78.1172 North 461 531 33,000  Level Jacksonville Center
Wed 11:13:26 PM 32.9900 -78.0981 North 461 531 33,000  Level Jacksonville Center
Wed 11:15:07 PM 33.1992 -78.0681 North 468 539 33,000  Level Washington Center
Wed 11:16:08 PM 33.3247 -78.0469 North 468 539 33,000  Level Washington Center
Wed 11:17:05 PM 33.4525 -78.0258 North 463 533 33,000 -51 Level Washington Center
Wed 11:18:06 PM 33.5781 -78.0044 North 463 533 32,900 -50 Descending Washington Center
Wed 11:19:06 PM 33.7036 -77.9831 North 463 533 32,900  Level Washington Center
Wed 11:20:07 PM 33.8292 -77.9642 North 458 527 32,900 50 Level Washington Center
Wed 11:21:05 PM 33.9631 -77.9406 North 459 528 33,000 51 Climbing Washington Center
Wed 11:22:05 PM 34.0886 -77.9317 North 464 534 33,000  Level Washington Center
Wed 11:23:06 PM 34.2114 -77.9375 358° North 459 528 33,000 -49 Level Washington Center
Wed 11:24:07 PM 34.3511 -77.9489 356° North 454 522 32,900  Descending Washington Center
Wed 11:25:05 PM 34.4781 -77.9553 358° North 454 522 33,000  Climbing Washington Center
Wed 11:26:06 PM 34.6011 -77.9614 358° North 454 522 32,900  Descending Washington Center
Wed 11:31:31 PM 35.2770 -77.9965 357° North 444 511 33,000 14 Climbing FlightAware ADS-B
Wed 11:33:12 PM 35.4852 -78.0080 357° North 443 510 33,000  Level FlightAware ADS-B
Wed 11:33:52 PM 35.5695 -78.0127 357° North 443 510 33,000  Level FlightAware ADS-B
Wed 11:34:32 PM 35.6514 -78.0173 357° North 444 511 33,000  Level FlightAware ADS-B
Wed 11:35:13 PM 35.7335 -78.0219 357° North 444 511 33,000  Level FlightAware ADS-B
Wed 11:36:11 PM 35.8549 -78.0289 357° North 445 512 33,000  Level FlightAware ADS-B
Wed 11:36:54 PM 35.9434 -78.0338 357° North 446 513 33,000  Level FlightAware ADS-B
Wed 11:38:05 PM 36.0892 -78.0442 357° North 444 511 33,000  Level Washington Center
Wed 11:39:05 PM 36.2144 -78.0506 358° North 444 511 33,000  Level Washington Center
Wed 11:40:06 PM 36.3372 -78.0594 357° North 439 505 33,000  Level Washington Center
Wed 11:41:06 PM 36.4497 -78.0658 357° North 439 505 33,000  Level Washington Center
Wed 11:42:06 PM 36.5728 -78.0697 359° North 439 505 33,000  Level Washington Center
Wed 11:43:05 PM 36.6978 -78.0789 357° North 439 505 33,000  Level Washington Center
Wed 11:44:06 PM 36.8228 -78.0853 358° North 439 505 33,000  Level Washington Center
Wed 11:45:05 PM 36.9478 -78.0919 358° North 439 505 33,000  Level Washington Center
Wed 11:51:16 PM 37.7312 -78.1378 357° North 463 533 33,000  Level FlightAware ADS-B (KCHO)
Wed 11:51:46 PM 37.8098 -78.1424 357° North 464 534 33,000  Level FlightAware ADS-B (KCHO)
Wed 11:52:17 PM 37.8754 -78.1462 357° North 464 534 33,000  Level FlightAware ADS-B (KCHO)
Wed 11:52:55 PM 37.9579 -78.1511 357° North 464 534 33,000  Level FlightAware ADS-B (KCHO)
Wed 11:53:44 PM 38.0551 -78.1569 357° North 463 533 33,000  Level FlightAware ADS-B (KCHO)
Wed 11:54:23 PM 38.1457 -78.1624 357° North 463 533 33,000  Level FlightAware ADS-B (KCHO)
Wed 11:54:54 PM 38.2054 -78.1661 357° North 461 531 33,000  Level FlightAware ADS-B (KCHO)
Wed 11:56:05 PM 38.3539 -78.1758 357° North 453 521 33,000  Level Washington Center
Wed 11:57:05 PM 38.4831 -78.1856 357° North 458 527 33,000  Level Washington Center
Wed 11:58:05 PM 38.5975 -78.1922 357° North 458 527 33,000  Level Washington Center
Wed 11:59:07 PM 38.7289 -78.1997 357° North 458 527 33,000  Level Washington Center
Thu 12:00:06 AM 38.8578 -78.2069 358° North 458 527 33,000  Level Washington Center
Thu 12:01:08 AM 39.0014 -78.2225 355° North 463 533 33,000  Level Washington Center
Thu 12:03:04 AM 39.2464 -78.2469 356° North 470 541 33,000 -34 Level Cleveland Center
Thu 12:04:05 AM 39.3750 -78.2606 355° North 466 536 32,900  Descending Cleveland Center
Thu 12:05:06 AM 39.5036 -78.2744 355° North 464 534 33,000 50 Climbing Cleveland Center
Thu 12:06:06 AM 39.6347 -78.2861 356° North 466 536 33,000  Level Cleveland Center
Thu 12:07:07 AM 39.7669 -78.3011 355° North 472 543 33,000  Level Cleveland Center
Thu 12:08:07 AM 39.8989 -78.3147 355° North 472 543 33,000  Level Cleveland Center
Thu 12:09:08 AM 40.0303 -78.3286 355° North 474 545 33,000  Level Cleveland Center
Thu 12:10:09 AM 40.1622 -78.3417 356° North 474 545 33,000  Level Cleveland Center
Thu 12:11:09 AM 40.3178 -78.3589 355° North 473 544 33,000 -480 Level Cleveland Center
Thu 12:16:49 AM 41.0505 -78.4361 356° North 446 513 29,800 -668 Descending FlightAware ADS-B (CYYZ)
Thu 12:20:08 AM 41.4562 -78.3960 346° North 409 471 27,000 -743 Descending FlightAware ADS-B (CYYZ)
Thu 12:20:35 AM 41.4864 -78.4065 346° North 409 471 27,000  Level FlightAware ADS-B (CYYZ)
Thu 12:21:08 AM 41.5689 -78.4337 347° North 410 472 27,000 -286 Level FlightAware ADS-B (CYYZ)
Thu 12:21:38 AM 41.6238 -78.4515 347° North 410 472 26,700 -700 Descending FlightAware ADS-B (CYYZ)
Thu 12:22:08 AM 41.6803 -78.4698 347° North 408 470 26,300 -900 Descending FlightAware ADS-B (CYYZ)
Thu 12:22:38 AM 41.7347 -78.4877 346° North 409 471 25,800 -1,000 Descending FlightAware ADS-B (CYYZ)
Thu 12:23:08 AM 41.7890 -78.5055 347° North 402 463 25,300 -900 Descending FlightAware ADS-B (CYYZ)
Thu 12:23:38 AM 41.8431 -78.5233 346° North 402 463 24,900 -900 Descending FlightAware ADS-B (CYYZ)
Thu 12:24:08 AM 41.8932 -78.5404 346° North 421 484 24,400 -1,800 Descending FlightAware ADS-B (CYYZ)
Thu 12:24:38 AM 41.9538 -78.5607 347° North 425 489 23,100 -2,262 Descending FlightAware ADS-B (CYYZ)
Thu 12:25:09 AM 42.0129 -78.5798 347° North 414 476 22,100 -2,800 Descending FlightAware ADS-B (CYYZ)
Thu 12:25:38 AM 42.0687 -78.5981 347° North 422 486 20,300 -2,847 Descending FlightAware ADS-B (CYYZ)
Thu 12:26:08 AM 42.1241 -78.6163 347° North 406 467 19,300 -2,200 Descending FlightAware ADS-B (CYYZ)
Thu 12:26:38 AM 42.1791 -78.6343 347° North 397 457 18,100 -2,600 Descending FlightAware ADS-B (CYYZ)
Thu 12:27:08 AM 42.2314 -78.6517 346° North 394 453 16,700 -2,800 Descending FlightAware ADS-B (CYYZ)
Thu 12:27:38 AM 42.2843 -78.6694 346° North 393 452 15,300 -2,700 Descending FlightAware ADS-B (CYYZ)
Thu 12:28:08 AM 42.3363 -78.6868 347° North 393 452 14,000 -2,262 Descending FlightAware ADS-B (CYYZ)
Thu 12:28:39 AM 42.3903 -78.7047 347° North 381 438 13,000 -1,967 Descending FlightAware ADS-B (CYYZ)
Thu 12:29:09 AM 42.4406 -78.7213 346° North 371 427 12,000 -1,525 Descending FlightAware ADS-B (CYYZ)
Thu 12:29:38 AM 42.4881 -78.7370 347° North 350 403 11,500 -1,119 Descending FlightAware ADS-B (CYYZ)
Thu 12:30:08 AM 42.5344 -78.7470 North 327 376 10,900 -1,200 Descending FlightAware ADS-B (CYYZ)
Thu 12:30:38 AM 42.5780 -78.7369 10° North 319 367 10,300 -1,176 Descending FlightAware ADS-B (CYYZ)
Thu 12:30:59 AM 42.6069 -78.7295 10° North 313 360 9,900 -1,371 Descending FlightAware ADS-B (CYYZ)
Thu 12:31:13 AM 42.6269 -78.7243 11° North 310 357 9,500 -1,400 Descending FlightAware ADS-B (CYYZ)
Thu 12:31:29 AM 42.6492 -78.7182 11° North 309 356 9,200 -1,448 Descending FlightAware ADS-B (CYYZ)
Thu 12:31:42 AM 42.6635 -78.7142 11° North 307 353 8,800 -1,655 Descending FlightAware ADS-B (CYYZ)
Thu 12:31:58 AM 42.6907 -78.7070 11° North 306 352 8,400 -1,355 Descending FlightAware ADS-B (CYYZ)
Thu 12:32:13 AM 42.7062 -78.7029 10° North 304 350 8,100 -1,400 Descending FlightAware ADS-B (CYYZ)
Thu 12:32:28 AM 42.7301 -78.6968 10° North 302 348 7,700 -1,600 Descending FlightAware ADS-B (CYYZ)
Thu 12:32:43 AM 42.7502 -78.6915 11° North 301 346 7,300 -1,400 Descending FlightAware ADS-B (CYYZ)
Thu 12:32:58 AM 42.7704 -78.6862 11° North 298 343 7,000 -1,241 Descending FlightAware ADS-B (CYYZ)
Thu 12:33:12 AM 42.7916 -78.6806 11° North 297 342 6,700 -1,448 Descending FlightAware ADS-B (CYYZ)
Thu 12:33:27 AM 42.8068 -78.6766 11° North 300 345 6,300 -1,548 Descending FlightAware ADS-B (CYYZ)
Thu 12:33:43 AM 42.8299 -78.6702 11° North 299 344 5,900 -1,610 Descending FlightAware ADS-B (CYYZ)
Thu 12:34:08 AM 42.8665 -78.6597 11° North 298 343 5,200 -1,418 Descending FlightAware ADS-B (CYYZ)
Thu 12:34:38 AM 42.9067 -78.6579 359° North 283 326 4,600 -1,227 Descending FlightAware ADS-B (CYYZ)
Thu 12:34:52 AM 42.9249 -78.6582 359° North 280 322 4,300 -270 Descending FlightAware ADS-B (CYYZ)
Thu 12:36:07 AM 43.0120 -78.6576 357° North 235 270 4,200 -128 Descending FlightAware ADS-B (CYYZ)
Thu 12:36:26 AM 43.0299 -78.6606 352° North 224 258 4,100 -740 Descending FlightAware ADS-B (CYYZ)
Thu 12:37:20 AM 43.0789 -78.6711 352° North 219 252 3,300 -895 Descending Cleveland Center
Thu 12:38:20 AM 43.1092 -78.7183 311° West 160 184 2,400 -450 Descending Cleveland Center
Thu 12:39:20 AM 43.1078 -78.7731 268° West 148 170 2,400 -200 Level Cleveland Center
Thu 12:40:20 AM 43.1081 -78.8269 270° West 138 159 2,000 -248 Descending Cleveland Center
Thu 12:41:21 AM 43.1086 -78.8686 271° West 136 157 1,900 -98 Descending Cleveland Center

Login

Don't have an account? Register now (free) for customized features, flight alerts, and more!